Time;durP1;ratioP1;P1;durP2;ratioP2;P2;SDS_P1;SDS_P2;PMS_P1;PMS_P2;Temp;Humidity;BMP_temperature;BMP_pressure;BME280_temperature;BME280_humidity;BME280_pressure;Samples;Min_cycle;Max_cycle;Signal;HPM_P1;HPM_P2
2023/04/13 00:00:46;;;;;;;0.60;0.50;;;;;;;;;;4996482;28;20141;-73
2023/04/13 00:03:15;;;;;;;0.50;0.40;;;;;;;;;;4996689;28;20140;-73
2023/04/13 00:05:44;;;;;;;0.93;0.40;;;;;;;;;;4996722;28;20525;-73
2023/04/13 00:08:12;;;;;;;1.08;0.50;;;;;;;;;;4996629;28;20533;-73
2023/04/13 00:10:40;;;;;;;0.47;0.30;;;;;;;;;;4996354;28;20050;-73
2023/04/13 00:13:08;;;;;;;1.17;0.40;;;;;;;;;;4996630;28;20482;-73
2023/04/13 00:15:38;;;;;;;0.50;0.40;;;;;;;;;;4996325;28;20053;-72
2023/04/13 00:18:09;;;;;;;0.40;0.40;;;;;;;;;;4996298;28;20529;-72
2023/04/13 00:20:37;;;;;;;0.40;0.30;;;;;;;;;;4996131;28;20054;-73
2023/04/13 00:23:04;;;;;;;0.90;0.30;;;;;;;;;;4996250;28;20103;-73
2023/04/13 00:25:31;;;;;;;0.90;0.25;;;;;;;;;;4996543;28;20504;-73
2023/04/13 00:28:01;;;;;;;0.55;0.30;;;;;;;;;;5013575;28;20053;-72
2023/04/13 00:30:29;;;;;;;0.50;0.30;;;;;;;;;;4995913;28;20089;-73
2023/04/13 00:32:55;;;;;;;0.60;0.60;;;;;;;;;;4995845;28;20112;-73
2023/04/13 00:35:23;;;;;;;0.75;0.50;;;;;;;;;;4996295;28;20065;-73
2023/04/13 00:37:51;;;;;;;1.40;0.40;;;;;;;;;;4996105;28;20045;-73
2023/04/13 00:40:18;;;;;;;0.90;0.32;;;;;;;;;;4995841;28;20133;-73
2023/04/13 00:42:46;;;;;;;0.70;0.70;;;;;;;;;;4995892;28;20111;-73
2023/04/13 00:45:13;;;;;;;0.73;0.47;;;;;;;;;;4995856;28;20057;-73
2023/04/13 00:47:42;;;;;;;0.98;0.30;;;;;;;;;;4979874;28;20129;-73
2023/04/13 00:50:09;;;;;;;0.65;0.50;;;;;;;;;;4995835;28;20485;-73
2023/04/13 00:52:38;;;;;;;2.03;0.68;;;;;;;;;;4995490;28;20053;-73
2023/04/13 00:55:06;;;;;;;2.92;0.82;;;;;;;;;;4995618;28;20388;-73
2023/04/13 00:57:33;;;;;;;1.20;0.60;;;;;;;;;;5011827;28;20104;-73
2023/04/13 01:00:05;;;;;;;1.67;0.40;;;;;;;;;;4995451;28;20089;-73
2023/04/13 01:02:33;;;;;;;0.57;0.45;;;;;;;;;;4995059;28;20525;-73
2023/04/13 01:05:01;;;;;;;2.20;0.50;;;;;;;;;;4995523;28;20080;-72
2023/04/13 01:07:57;;;;;;;1.25;0.47;;;;;;;;;;4968137;28;20505;-73
2023/04/13 01:10:32;;;;;;;0.60;0.40;;;;;;;;;;4967718;28;20145;-73
2023/04/13 01:13:02;;;;;;;0.68;0.30;;;;;;;;;;4995365;28;20053;-73
2023/04/13 01:15:29;;;;;;;1.27;0.43;;;;;;;;;;4994924;28;20058;-73
2023/04/13 01:18:06;;;;;;;0.65;0.40;;;;;;;;;;4995039;28;20049;-73
2023/04/13 01:20:34;;;;;;;0.40;0.38;;;;;;;;;;4979886;28;20058;-73
2023/04/13 01:23:02;;;;;;;1.05;0.60;;;;;;;;;;5012286;28;20054;-73
2023/04/13 01:25:46;;;;;;;1.40;0.40;;;;;;;;;;4995115;28;20045;-73
2023/04/13 01:28:17;;;;;;;2.05;0.40;;;;;;;;;;4995176;28;20057;-72
2023/04/13 01:30:44;;;;;;;0.85;0.55;;;;;;;;;;4994837;28;20054;-73
2023/04/13 01:33:11;;;;;;;1.02;0.32;;;;;;;;;;4994744;28;20053;-72
2023/04/13 01:35:38;;;;;;;0.57;0.40;;;;;;;;;;5011054;28;20064;-72
2023/04/13 01:38:05;;;;;;;0.80;0.68;;;;;;;;;;4994780;28;20105;-73
2023/04/13 01:40:35;;;;;;;1.08;0.43;;;;;;;;;;4994604;28;20506;-73
2023/04/13 01:43:02;;;;;;;1.98;0.70;;;;;;;;;;4994690;28;20161;-73
2023/04/13 01:46:10;;;;;;;0.75;0.50;;;;;;;;;;4994832;28;20465;-73
2023/04/13 01:48:45;;;;;;;1.73;0.40;;;;;;;;;;4952913;28;20058;-73
2023/04/13 01:51:19;;;;;;;0.77;0.70;;;;;;;;;;4994458;28;20160;-72
2023/04/13 01:53:48;;;;;;;4.18;0.60;;;;;;;;;;5010823;28;20050;-73
2023/04/13 01:56:14;;;;;;;0.93;0.60;;;;;;;;;;4994425;28;20053;-72
2023/04/13 01:58:41;;;;;;;2.22;0.50;;;;;;;;;;4978402;28;20191;-73
2023/04/13 02:01:08;;;;;;;0.85;0.70;;;;;;;;;;4978361;28;20054;-72
2023/04/13 02:03:37;;;;;;;3.97;0.90;;;;;;;;;;4994358;28;20104;-72
2023/04/13 02:06:06;;;;;;;0.80;0.43;;;;;;;;;;4994432;28;20100;-72
2023/04/13 02:08:35;;;;;;;1.45;1.35;;;;;;;;;;5010446;28;20058;-72
2023/04/13 02:11:03;;;;;;;2.55;1.13;;;;;;;;;;4994012;28;20053;-72
2023/04/13 02:13:29;;;;;;;3.00;1.30;;;;;;;;;;4993443;28;20140;-72
2023/04/13 02:15:57;;;;;;;3.05;1.27;;;;;;;;;;4977831;28;20062;-72
2023/04/13 02:18:24;;;;;;;0.98;0.60;;;;;;;;;;4994197;28;20490;-72
2023/04/13 02:21:08;;;;;;;1.95;0.70;;;;;;;;;;4993928;28;20054;-73
2023/04/13 02:23:36;;;;;;;1.67;0.60;;;;;;;;;;4994127;28;20390;-73
2023/04/13 02:26:05;;;;;;;2.45;1.00;;;;;;;;;;4994026;28;20080;-72
2023/04/13 02:28:32;;;;;;;1.10;0.60;;;;;;;;;;4994209;28;20116;-72
2023/04/13 02:30:59;;;;;;;3.22;0.55;;;;;;;;;;5009939;28;20596;-72
2023/04/13 02:33:31;;;;;;;2.05;0.98;;;;;;;;;;4993895;28;20060;-72
2023/04/13 02:35:59;;;;;;;1.63;0.55;;;;;;;;;;4994002;28;20137;-72
2023/04/13 02:38:30;;;;;;;1.38;0.38;;;;;;;;;;4993869;28;20093;-72
2023/04/13 02:40:58;;;;;;;1.45;0.55;;;;;;;;;;4993886;28;20435;-72
2023/04/13 02:43:25;;;;;;;1.48;0.50;;;;;;;;;;4993663;28;20498;-72
2023/04/13 02:45:52;;;;;;;1.05;0.55;;;;;;;;;;4993786;28;20068;-72
2023/04/13 02:48:20;;;;;;;3.05;0.65;;;;;;;;;;5009909;28;20421;-73
2023/04/13 02:50:47;;;;;;;2.22;0.55;;;;;;;;;;4993655;28;20065;-72
2023/04/13 02:53:15;;;;;;;1.50;0.73;;;;;;;;;;4977511;28;20539;-72
2023/04/13 02:55:42;;;;;;;0.75;0.63;;;;;;;;;;4993844;28;20093;-72
2023/04/13 02:58:10;;;;;;;1.33;0.65;;;;;;;;;;4993575;28;20148;-72
2023/04/13 03:00:37;;;;;;;2.08;1.00;;;;;;;;;;4993384;28;20082;-72
2023/04/13 03:03:05;;;;;;;2.85;0.80;;;;;;;;;;4993726;28;20127;-72
2023/04/13 03:05:32;;;;;;;3.60;1.00;;;;;;;;;;4993840;28;20062;-72
2023/04/13 03:07:59;;;;;;;4.18;1.88;;;;;;;;;;4993775;28;20046;-72
2023/04/13 03:10:26;;;;;;;1.38;0.70;;;;;;;;;;4993378;28;20054;-73
2023/04/13 03:12:53;;;;;;;1.88;0.63;;;;;;;;;;4993516;28;20140;-72
2023/04/13 03:15:19;;;;;;;3.85;0.80;;;;;;;;;;4993051;28;20054;-73
2023/04/13 03:17:46;;;;;;;1.80;0.70;;;;;;;;;;4977621;28;20056;-73
2023/04/13 03:20:15;;;;;;;2.80;0.68;;;;;;;;;;4993515;28;20068;-72
2023/04/13 03:22:43;;;;;;;1.42;0.70;;;;;;;;;;4993365;28;20136;-72
2023/04/13 03:25:11;;;;;;;1.48;0.77;;;;;;;;;;4995763;28;20093;-73
2023/04/13 03:27:38;;;;;;;1.35;0.65;;;;;;;;;;4997310;28;20558;-72
2023/04/13 03:30:06;;;;;;;4.05;0.90;;;;;;;;;;4997093;28;20420;-72
2023/04/13 03:32:33;;;;;;;2.17;0.82;;;;;;;;;;5013170;28;20140;-72
2023/04/13 03:35:00;;;;;;;1.98;0.80;;;;;;;;;;4981240;28;20468;-72
2023/04/13 03:37:28;;;;;;;1.38;0.70;;;;;;;;;;4997249;28;20152;-72
2023/04/13 03:39:57;;;;;;;4.93;0.77;;;;;;;;;;4996842;28;20072;-72
2023/04/13 03:42:24;;;;;;;2.70;0.70;;;;;;;;;;4980887;28;20136;-72
2023/04/13 03:44:50;;;;;;;1.30;0.80;;;;;;;;;;4997059;28;20056;-72
2023/04/13 03:47:17;;;;;;;5.15;0.68;;;;;;;;;;5013209;28;20054;-72
2023/04/13 03:49:44;;;;;;;2.28;0.90;;;;;;;;;;4981229;28;20053;-72
2023/04/13 03:52:10;;;;;;;2.53;0.85;;;;;;;;;;4996805;28;20058;-72
2023/04/13 03:54:38;;;;;;;1.13;0.40;;;;;;;;;;4996972;28;20152;-72
2023/04/13 03:57:06;;;;;;;2.40;0.55;;;;;;;;;;4996649;28;20057;-72
2023/04/13 03:59:32;;;;;;;1.77;0.60;;;;;;;;;;4981550;28;20430;-72
2023/04/13 04:02:01;;;;;;;2.00;0.50;;;;;;;;;;4996658;28;20056;-72
2023/04/13 04:04:28;;;;;;;0.73;0.50;;;;;;;;;;4997042;28;20115;-72
2023/04/13 04:06:56;;;;;;;1.75;0.45;;;;;;;;;;4996684;28;20054;-72
2023/04/13 04:09:24;;;;;;;1.63;0.50;;;;;;;;;;4996707;28;20477;-72
2023/04/13 04:11:51;;;;;;;1.20;0.45;;;;;;;;;;4996516;28;20056;-72
2023/04/13 04:14:19;;;;;;;2.08;0.40;;;;;;;;;;4996881;28;20057;-72
2023/04/13 04:16:45;;;;;;;1.38;1.08;;;;;;;;;;4996602;28;20497;-72
2023/04/13 04:19:12;;;;;;;1.73;0.43;;;;;;;;;;4996601;28;20068;-72
2023/04/13 04:21:45;;;;;;;1.63;0.65;;;;;;;;;;4998894;28;20049;-72
2023/04/13 04:24:30;;;;;;;3.22;1.23;;;;;;;;;;4996423;28;20061;-72
2023/04/13 04:26:58;;;;;;;2.75;0.50;;;;;;;;;;4996872;28;20065;-72
2023/04/13 04:29:34;;;;;;;1.70;0.52;;;;;;;;;;4996899;28;20403;-72
2023/04/13 04:32:02;;;;;;;2.03;0.82;;;;;;;;;;4996719;28;20112;-72
2023/04/13 04:34:30;;;;;;;2.28;0.43;;;;;;;;;;4996386;28;20058;-72
2023/04/13 04:36:57;;;;;;;2.15;0.75;;;;;;;;;;4979315;28;20503;-72
2023/04/13 04:39:31;;;;;;;2.58;0.98;;;;;;;;;;4997104;28;20053;-72
2023/04/13 04:42:04;;;;;;;4.30;1.13;;;;;;;;;;4980067;28;20131;-72
2023/04/13 04:44:31;;;;;;;2.13;0.57;;;;;;;;;;4996250;28;20495;-72
2023/04/13 04:46:58;;;;;;;0.95;0.40;;;;;;;;;;4996025;28;20180;-72
2023/04/13 04:49:26;;;;;;;1.20;0.60;;;;;;;;;;4996191;28;20057;-72
2023/04/13 04:51:54;;;;;;;3.70;0.60;;;;;;;;;;4995651;28;20569;-72
2023/04/13 04:54:21;;;;;;;4.05;0.88;;;;;;;;;;4979980;28;20056;-72
2023/04/13 04:56:48;;;;;;;2.50;0.50;;;;;;;;;;4996086;28;20058;-72
2023/04/13 04:59:14;;;;;;;2.13;0.70;;;;;;;;;;4995596;28;20042;-73
2023/04/13 05:01:41;;;;;;;1.60;0.60;;;;;;;;;;4995229;28;20525;-73
2023/04/13 05:04:09;;;;;;;1.90;0.98;;;;;;;;;;4995621;28;20549;-72
2023/04/13 05:06:39;;;;;;;3.00;0.63;;;;;;;;;;4995627;28;20490;-72
2023/04/13 05:09:07;;;;;;;5.90;0.60;;;;;;;;;;4995505;28;20513;-72
2023/04/13 05:11:35;;;;;;;2.85;0.60;;;;;;;;;;4995052;28;20490;-72
2023/04/13 05:14:02;;;;;;;1.25;0.63;;;;;;;;;;4995466;28;20054;-72
2023/04/13 05:16:29;;;;;;;1.58;0.63;;;;;;;;;;4995680;28;20061;-72
2023/04/13 05:18:56;;;;;;;5.35;1.30;;;;;;;;;;4995359;28;20049;-72
2023/04/13 05:21:23;;;;;;;6.90;0.85;;;;;;;;;;4995138;28;20089;-72
2023/04/13 05:23:50;;;;;;;5.65;1.02;;;;;;;;;;4994973;28;20057;-72
2023/04/13 05:26:19;;;;;;;4.90;0.88;;;;;;;;;;4995134;28;20065;-72
2023/04/13 05:28:45;;;;;;;4.60;1.15;;;;;;;;;;5011196;28;20133;-71
2023/04/13 05:31:13;;;;;;;3.10;0.68;;;;;;;;;;4995132;28;20089;-72
2023/04/13 05:33:39;;;;;;;4.10;0.68;;;;;;;;;;4995362;28;20141;-72
2023/04/13 05:36:07;;;;;;;4.43;0.75;;;;;;;;;;4995181;28;20058;-72
2023/04/13 05:38:33;;;;;;;2.47;0.98;;;;;;;;;;4995556;28;20303;-73
2023/04/13 05:41:02;;;;;;;0.77;0.73;;;;;;;;;;4994740;28;20049;-72
2023/04/13 05:43:28;;;;;;;2.20;0.60;;;;;;;;;;4979008;28;20054;-72
2023/04/13 05:45:55;;;;;;;4.28;0.90;;;;;;;;;;4995168;28;20065;-72
2023/04/13 05:48:22;;;;;;;2.80;0.90;;;;;;;;;;4995328;28;20057;-73
2023/04/13 05:50:48;;;;;;;4.07;0.85;;;;;;;;;;4995269;28;20453;-72
2023/04/13 05:53:15;;;;;;;3.15;0.80;;;;;;;;;;5010993;28;20457;-72
2023/04/13 05:55:43;;;;;;;3.38;0.90;;;;;;;;;;4995025;28;20062;-73
2023/04/13 05:58:12;;;;;;;4.50;1.80;;;;;;;;;;5011162;28;20054;-72
2023/04/13 06:00:38;;;;;;;3.60;0.73;;;;;;;;;;4994519;28;20064;-72
2023/04/13 06:03:06;;;;;;;3.80;0.82;;;;;;;;;;4994498;28;20426;-72
2023/04/13 06:05:35;;;;;;;4.75;1.08;;;;;;;;;;4994425;28;20590;-72
2023/04/13 06:08:02;;;;;;;5.03;0.82;;;;;;;;;;4994561;28;20054;-73
2023/04/13 06:10:29;;;;;;;7.57;1.02;;;;;;;;;;4994029;28;20054;-72
2023/04/13 06:12:55;;;;;;;1.05;0.52;;;;;;;;;;4978552;28;20053;-72
2023/04/13 06:15:22;;;;;;;4.50;1.05;;;;;;;;;;4994530;28;20053;-72
2023/04/13 06:17:52;;;;;;;5.22;0.95;;;;;;;;;;4994204;28;20418;-72
2023/04/13 06:20:20;;;;;;;5.72;1.23;;;;;;;;;;4994108;28;20417;-72
2023/04/13 06:22:47;;;;;;;2.58;0.90;;;;;;;;;;5010217;28;20054;-72
2023/04/13 06:25:15;;;;;;;6.28;1.90;;;;;;;;;;5010393;28;20070;-73
2023/04/13 06:27:42;;;;;;;2.97;0.80;;;;;;;;;;4994435;28;20049;-71
2023/04/13 06:30:09;;;;;;;3.35;0.85;;;;;;;;;;4993941;28;20065;-71
2023/04/13 06:32:36;;;;;;;11.02;1.17;;;;;;;;;;4993959;28;20420;-72
2023/04/13 06:35:04;;;;;;;2.33;0.70;;;;;;;;;;4994066;28;20418;-72
2023/04/13 06:37:33;;;;;;;5.00;2.08;;;;;;;;;;4993746;28;20057;-72
2023/04/13 06:40:11;;;;;;;7.20;1.02;;;;;;;;;;4993646;28;20065;-72
2023/04/13 06:42:39;;;;;;;4.40;1.27;;;;;;;;;;4994024;28;20253;-72
2023/04/13 06:45:09;;;;;;;5.20;0.70;;;;;;;;;;4993934;28;20081;-71
2023/04/13 06:47:39;;;;;;;1.58;0.82;;;;;;;;;;4994137;28;20057;-72
2023/04/13 06:50:07;;;;;;;5.55;1.20;;;;;;;;;;4993534;28;20910;-72
2023/04/13 06:52:35;;;;;;;5.85;0.80;;;;;;;;;;4993785;28;20061;-73
2023/04/13 06:55:02;;;;;;;1.83;0.63;;;;;;;;;;4993788;28;20513;-72
2023/04/13 06:57:29;;;;;;;2.58;0.88;;;;;;;;;;4993667;28;20049;-72
2023/04/13 06:59:56;;;;;;;1.80;0.68;;;;;;;;;;4993093;28;20060;-72
2023/04/13 07:02:25;;;;;;;3.05;0.88;;;;;;;;;;4995645;28;20053;-72
2023/04/13 07:04:52;;;;;;;3.53;1.27;;;;;;;;;;4993826;28;20426;-72
2023/04/13 07:07:19;;;;;;;4.03;0.88;;;;;;;;;;4994031;28;20062;-72
2023/04/13 07:09:46;;;;;;;2.67;0.95;;;;;;;;;;4993463;28;20068;-72
2023/04/13 07:12:13;;;;;;;3.60;0.77;;;;;;;;;;5011022;28;20140;-72
2023/04/13 07:14:40;;;;;;;3.65;1.05;;;;;;;;;;4993455;28;20557;-72
2023/04/13 07:17:06;;;;;;;3.80;0.88;;;;;;;;;;4993462;28;20054;-72
2023/04/13 07:19:35;;;;;;;2.53;0.63;;;;;;;;;;4993651;28;20046;-73
2023/04/13 07:22:03;;;;;;;3.30;0.55;;;;;;;;;;4993423;28;20459;-72
2023/04/13 07:24:30;;;;;;;3.72;1.10;;;;;;;;;;4993555;28;20058;-72
2023/04/13 07:26:57;;;;;;;5.38;1.00;;;;;;;;;;4993334;28;20054;-72
2023/04/13 07:29:24;;;;;;;3.53;0.70;;;;;;;;;;4993482;28;20537;-72
2023/04/13 07:31:51;;;;;;;1.80;0.60;;;;;;;;;;4993380;28;20064;-72
2023/04/13 07:34:17;;;;;;;5.47;1.08;;;;;;;;;;4993895;28;20132;-72
2023/04/13 07:36:44;;;;;;;6.22;0.95;;;;;;;;;;4996145;28;20061;-72
2023/04/13 07:39:11;;;;;;;4.95;1.52;;;;;;;;;;4993770;28;20049;-72
2023/04/13 07:41:38;;;;;;;4.90;0.90;;;;;;;;;;4993432;28;20253;-72
2023/04/13 07:44:05;;;;;;;6.05;1.00;;;;;;;;;;4993780;28;20064;-74
2023/04/13 07:46:32;;;;;;;5.82;0.70;;;;;;;;;;5011630;28;20090;-73
2023/04/13 07:48:59;;;;;;;6.22;1.05;;;;;;;;;;4993580;28;20092;-74
2023/04/13 07:51:26;;;;;;;2.38;0.82;;;;;;;;;;4993211;28;20149;-73
2023/04/13 07:53:53;;;;;;;4.40;1.00;;;;;;;;;;4993405;28;20054;-73
2023/04/13 07:56:21;;;;;;;5.45;1.35;;;;;;;;;;4994504;28;20421;-73
2023/04/13 07:58:49;;;;;;;5.35;1.10;;;;;;;;;;4992986;28;20050;-73
2023/04/13 08:01:16;;;;;;;5.60;1.13;;;;;;;;;;4993019;28;20068;-73
2023/04/13 08:03:42;;;;;;;2.38;0.90;;;;;;;;;;4992903;28;20054;-73
2023/04/13 08:06:10;;;;;;;3.90;1.48;;;;;;;;;;4993105;28;20429;-73
2023/04/13 08:08:37;;;;;;;5.63;1.30;;;;;;;;;;5009514;28;20073;-74
2023/04/13 08:11:04;;;;;;;2.63;1.13;;;;;;;;;;4993123;28;20103;-73
2023/04/13 08:13:30;;;;;;;4.10;0.73;;;;;;;;;;4996732;28;20509;-73
2023/04/13 08:15:59;;;;;;;2.40;0.98;;;;;;;;;;4996523;28;20064;-73
2023/04/13 08:18:30;;;;;;;5.53;0.70;;;;;;;;;;4996375;28;20050;-73
2023/04/13 08:20:57;;;;;;;4.07;0.93;;;;;;;;;;4996208;28;20061;-73
2023/04/13 08:23:26;;;;;;;7.28;3.30;;;;;;;;;;4996191;28;20061;-73
2023/04/13 08:25:53;;;;;;;8.75;1.25;;;;;;;;;;4996158;28;20077;-74
2023/04/13 08:28:20;;;;;;;10.00;3.03;;;;;;;;;;4996534;28;20054;-73
2023/04/13 08:30:46;;;;;;;11.00;3.10;;;;;;;;;;4996080;28;20518;-73
2023/04/13 08:33:13;;;;;;;11.63;4.60;;;;;;;;;;4996114;28;20052;-73
2023/04/13 08:35:40;;;;;;;7.35;2.92;;;;;;;;;;4996200;28;20468;-73
2023/04/13 08:38:07;;;;;;;4.57;1.40;;;;;;;;;;4995928;28;20065;-73
2023/04/13 08:40:38;;;;;;;6.80;1.27;;;;;;;;;;4995771;28;20498;-73
2023/04/13 08:43:05;;;;;;;5.32;1.33;;;;;;;;;;4996204;28;20506;-73
2023/04/13 08:45:33;;;;;;;4.15;1.10;;;;;;;;;;4995831;28;20065;-74
2023/04/13 08:48:00;;;;;;;5.07;1.80;;;;;;;;;;4995948;28;20088;-73
2023/04/13 08:50:27;;;;;;;4.57;1.42;;;;;;;;;;4995660;28;20057;-73
2023/04/13 08:52:54;;;;;;;6.35;1.55;;;;;;;;;;4995483;28;20054;-73
2023/04/13 08:55:21;;;;;;;6.57;1.73;;;;;;;;;;4995658;28;20054;-73
2023/04/13 08:57:49;;;;;;;5.55;1.45;;;;;;;;;;4995793;28;20514;-73
2023/04/13 09:00:18;;;;;;;5.63;1.30;;;;;;;;;;4995632;28;20057;-73
2023/04/13 09:02:49;;;;;;;5.15;1.20;;;;;;;;;;4995508;28;20136;-73
2023/04/13 09:05:32;;;;;;;2.75;1.10;;;;;;;;;;4997597;28;20513;-72
2023/04/13 09:08:00;;;;;;;9.73;1.45;;;;;;;;;;4995847;28;20481;-73
2023/04/13 09:10:27;;;;;;;2.53;0.75;;;;;;;;;;4995242;28;20064;-73
2023/04/13 09:12:54;;;;;;;4.10;1.10;;;;;;;;;;4995288;28;20054;-73
2023/04/13 09:15:21;;;;;;;3.22;0.73;;;;;;;;;;4994985;28;20057;-73
2023/04/13 09:17:48;;;;;;;2.47;0.90;;;;;;;;;;4995302;28;20054;-73
2023/04/13 09:20:17;;;;;;;5.05;1.00;;;;;;;;;;4995142;28;20145;-73
2023/04/13 09:22:43;;;;;;;3.97;1.15;;;;;;;;;;5010987;28;20394;-73
2023/04/13 09:25:24;;;;;;;6.80;0.95;;;;;;;;;;4995226;28;20058;-72
2023/04/13 09:27:51;;;;;;;3.75;0.88;;;;;;;;;;4995309;28;20080;-73
2023/04/13 09:30:20;;;;;;;3.72;1.05;;;;;;;;;;4995265;28;20052;-72
2023/04/13 09:32:47;;;;;;;7.82;1.05;;;;;;;;;;4996277;28;20062;-73
2023/04/13 09:35:13;;;;;;;2.45;0.85;;;;;;;;;;4995172;28;20089;-73
2023/04/13 09:37:41;;;;;;;4.60;1.08;;;;;;;;;;4994958;28;20053;-73
2023/04/13 09:40:13;;;;;;;5.43;1.45;;;;;;;;;;4978784;28;20054;-73
2023/04/13 09:42:56;;;;;;;3.05;1.00;;;;;;;;;;5010991;28;20148;-73
2023/04/13 09:45:23;;;;;;;;;;;;;;;;;;4995235;28;20057;-73
2023/04/13 09:47:51;;;;;;;5.55;1.20;;;;;;;;;;4994936;28;19952;-73
2023/04/13 09:50:27;;;;;;;4.57;1.60;;;;;;;;;;4994643;28;20470;-73
2023/04/13 09:52:59;;;;;;;2.63;0.70;;;;;;;;;;4994574;28;20057;-73
2023/04/13 09:55:26;;;;;;;5.50;1.10;;;;;;;;;;4994555;28;20466;-74
2023/04/13 09:57:53;;;;;;;5.45;0.93;;;;;;;;;;4994800;28;20058;-74
2023/04/13 10:00:20;;;;;;;5.10;0.77;;;;;;;;;;4994247;28;20058;-73
2023/04/13 10:02:51;;;;;;;3.53;1.58;;;;;;;;;;5010687;28;20060;-74
2023/04/13 10:05:18;;;;;;;3.50;1.25;;;;;;;;;;4994480;28;20061;-73
2023/04/13 10:07:46;;;;;;;4.60;1.20;;;;;;;;;;4994327;28;20089;-73
2023/04/13 10:10:12;;;;;;;3.45;0.80;;;;;;;;;;5010794;28;20498;-73
2023/04/13 10:12:50;;;;;;;2.22;0.75;;;;;;;;;;4994630;28;20073;-74
2023/04/13 10:15:26;;;;;;;2.97;0.98;;;;;;;;;;4994391;28;20068;-73
2023/04/13 10:18:27;;;;;;;3.88;1.60;;;;;;;;;;5011905;28;20057;-73
2023/04/13 10:20:54;;;;;;;4.55;0.98;;;;;;;;;;4993959;28;20049;-73
2023/04/13 10:23:21;;;;;;;5.07;0.88;;;;;;;;;;4994067;28;20057;-73
2023/04/13 10:25:52;;;;;;;4.25;1.00;;;;;;;;;;4994271;28;20060;-73
2023/04/13 10:28:23;;;;;;;3.55;1.00;;;;;;;;;;4994251;28;20068;-72
2023/04/13 10:30:52;;;;;;;5.00;0.90;;;;;;;;;;4978478;28;20096;-73
2023/04/13 10:33:19;;;;;;;5.40;1.10;;;;;;;;;;4994093;28;20084;-73
2023/04/13 10:35:57;;;;;;;3.15;1.60;;;;;;;;;;4994086;28;20132;-73
2023/04/13 10:38:24;;;;;;;2.83;0.82;;;;;;;;;;4994329;28;20058;-72
2023/04/13 10:40:51;;;;;;;2.90;0.70;;;;;;;;;;4993881;28;20057;-73
2023/04/13 10:43:30;;;;;;;4.15;1.00;;;;;;;;;;4993848;28;20064;-73
2023/04/13 10:46:12;;;;;;;5.25;1.05;;;;;;;;;;4994146;28;20144;-72
2023/04/13 10:48:42;;;;;;;4.53;0.90;;;;;;;;;;4994456;28;20076;-73
2023/04/13 10:51:08;;;;;;;5.88;1.08;;;;;;;;;;4993762;28;20090;-72
2023/04/13 10:53:35;;;;;;;5.55;1.33;;;;;;;;;;4993851;28;20450;-71
2023/04/13 10:56:03;;;;;;;4.30;1.00;;;;;;;;;;4993574;28;20064;-72
2023/04/13 10:58:31;;;;;;;3.65;1.00;;;;;;;;;;4993700;28;20061;-72
2023/04/13 11:00:59;;;;;;;6.55;1.63;;;;;;;;;;4993811;28;20096;-72
2023/04/13 11:03:27;;;;;;;4.63;0.90;;;;;;;;;;4993954;28;20396;-72
2023/04/13 11:05:59;;;;;;;7.80;1.40;;;;;;;;;;4993759;28;20140;-73
2023/04/13 11:08:27;;;;;;;4.40;1.35;;;;;;;;;;4993730;28;20138;-72
2023/04/13 11:10:55;;;;;;;7.00;1.10;;;;;;;;;;4993742;28;20072;-73
2023/04/13 11:13:27;;;;;;;3.97;0.93;;;;;;;;;;4993768;28;20058;-73
2023/04/13 11:16:04;;;;;;;;;;;;;;;;;;4994121;28;20053;-72
2023/04/13 11:18:31;;;;;;;7.57;1.00;;;;;;;;;;4993727;28;19925;-72
2023/04/13 11:20:58;;;;;;;3.28;1.50;;;;;;;;;;4993341;28;20058;-73
2023/04/13 11:23:24;;;;;;;5.50;1.52;;;;;;;;;;4993254;28;20513;-73
2023/04/13 11:25:58;;;;;;;6.78;0.82;;;;;;;;;;4993103;28;20490;-74
2023/04/13 11:28:39;;;;;;;6.05;1.30;;;;;;;;;;4993635;28;20058;-75
2023/04/13 11:31:06;;;;;;;4.53;1.52;;;;;;;;;;4993884;28;20525;-74
2023/04/13 11:33:34;;;;;;;7.05;1.67;;;;;;;;;;4993722;28;20057;-75
2023/04/13 11:36:06;;;;;;;4.60;1.52;;;;;;;;;;4994515;28;20054;-74
2023/04/13 11:38:32;;;;;;;8.13;1.95;;;;;;;;;;4993223;28;20510;-76
2023/04/13 11:41:04;;;;;;;3.40;1.33;;;;;;;;;;4992587;28;20057;-76
2023/04/13 11:43:44;;;;;;;5.80;1.40;;;;;;;;;;5008688;28;20640;-77
2023/04/13 11:46:14;;;;;;;7.03;1.67;;;;;;;;;;4992876;28;20089;-77
2023/04/13 11:48:42;;;;;;;6.30;1.38;;;;;;;;;;4978292;28;20096;-77
2023/04/13 11:51:10;;;;;;;5.43;1.35;;;;;;;;;;4993750;28;20116;-77
2023/04/13 11:53:38;;;;;;;9.05;1.70;;;;;;;;;;4978448;28;20088;-77
2023/04/13 11:56:05;;;;;;;8.60;1.42;;;;;;;;;;4977057;28;20054;-76
2023/04/13 11:58:32;;;;;;;7.40;1.40;;;;;;;;;;4993290;28;20065;-77
2023/04/13 12:01:05;;;;;;;6.05;2.63;;;;;;;;;;4961206;28;20502;-77
2023/04/13 12:03:34;;;;;;;9.57;2.15;;;;;;;;;;4979205;28;20100;-77
2023/04/13 12:06:21;;;;;;;5.85;1.58;;;;;;;;;;5011332;28;20064;-76
2023/04/13 12:08:48;;;;;;;5.28;1.08;;;;;;;;;;4974423;28;20054;-77
2023/04/13 12:11:23;;;;;;;6.93;0.93;;;;;;;;;;4994687;28;20433;-77
2023/04/13 12:14:21;;;;;;;6.45;1.25;;;;;;;;;;4983768;28;20058;-77
2023/04/13 12:16:50;;;;;;;5.15;1.08;;;;;;;;;;4995530;28;20057;-76
2023/04/13 12:19:22;;;;;;;5.05;1.13;;;;;;;;;;4963634;28;20080;-76
2023/04/13 12:21:54;;;;;;;4.75;1.00;;;;;;;;;;4995078;28;20494;-76
2023/04/13 12:24:34;;;;;;;4.63;1.42;;;;;;;;;;4990837;28;20054;-77
2023/04/13 12:27:03;;;;;;;1.63;0.73;;;;;;;;;;4944301;28;20056;-77
2023/04/13 12:29:39;;;;;;;1.60;0.80;;;;;;;;;;4959442;28;20565;-77
2023/04/13 12:32:13;;;;;;;;;;;;;;;;;;4943959;28;20052;-76
2023/04/13 12:34:40;;;;;;;2.88;1.20;;;;;;;;;;4975193;28;19930;-76
2023/04/13 12:37:08;;;;;;;2.78;0.60;;;;;;;;;;4970214;28;20100;-77
2023/04/13 12:39:35;;;;;;;5.18;0.88;;;;;;;;;;4978254;28;20061;-76
2023/04/13 12:42:02;;;;;;;5.88;1.08;;;;;;;;;;4988210;28;20082;-76
2023/04/13 12:44:29;;;;;;;2.97;0.70;;;;;;;;;;4992600;28;20159;-76
2023/04/13 12:47:02;;;;;;;2.22;0.77;;;;;;;;;;4994379;28;20053;-75
2023/04/13 12:49:29;;;;;;;2.67;0.75;;;;;;;;;;5009551;28;20093;-75
2023/04/13 12:51:57;;;;;;;3.90;0.88;;;;;;;;;;4988857;28;20439;-75
2023/04/13 12:54:24;;;;;;;3.03;0.80;;;;;;;;;;4975411;28;20555;-75
2023/04/13 12:56:55;;;;;;;0.70;0.47;;;;;;;;;;4992335;28;20066;-75
2023/04/13 12:59:24;;;;;;;;;;;;;;;;;;4994666;28;20050;-76
2023/04/13 13:01:50;;;;;;;1.90;0.63;;;;;;;;;;4973705;28;20016;-74
2023/04/13 13:04:18;;;;;;;2.78;0.93;;;;;;;;;;4968323;28;20541;-75
2023/04/13 13:06:45;;;;;;;3.95;0.90;;;;;;;;;;4973974;28;20064;-74
2023/04/13 13:09:12;;;;;;;2.45;0.85;;;;;;;;;;4984514;28;20596;-75
2023/04/13 13:11:38;;;;;;;3.17;1.00;;;;;;;;;;4980786;28;20050;-74
2023/04/13 13:14:06;;;;;;;3.67;0.73;;;;;;;;;;4963433;28;20057;-74
2023/04/13 13:16:36;;;;;;;1.65;0.70;;;;;;;;;;4971694;28;20058;-74
2023/04/13 13:19:04;;;;;;;2.50;0.70;;;;;;;;;;4986235;28;20082;-74
2023/04/13 13:21:32;;;;;;;2.05;0.80;;;;;;;;;;4990682;28;20772;-75
2023/04/13 13:23:59;;;;;;;5.53;1.30;;;;;;;;;;4979842;28;20050;-75
2023/04/13 13:26:26;;;;;;;3.75;0.82;;;;;;;;;;4982562;28;20062;-75
2023/04/13 13:29:05;;;;;;;2.92;0.80;;;;;;;;;;4979819;28;20072;-75
2023/04/13 13:31:32;;;;;;;1.75;0.75;;;;;;;;;;4967307;28;20141;-76
2023/04/13 13:33:59;;;;;;;5.30;1.10;;;;;;;;;;4957210;28;20099;-76
2023/04/13 13:36:26;;;;;;;2.20;0.73;;;;;;;;;;4984866;28;20058;-77
2023/04/13 13:38:53;;;;;;;3.58;0.90;;;;;;;;;;4981893;28;20136;-75
2023/04/13 13:41:21;;;;;;;1.83;1.05;;;;;;;;;;4981496;28;20061;-76
2023/04/13 13:43:48;;;;;;;3.65;1.00;;;;;;;;;;4991619;28;20092;-76
2023/04/13 13:46:15;;;;;;;3.58;1.35;;;;;;;;;;4991189;28;20057;-76
2023/04/13 13:48:43;;;;;;;3.22;1.00;;;;;;;;;;4988615;28;20054;-75
2023/04/13 13:51:10;;;;;;;3.47;0.90;;;;;;;;;;4958196;28;20065;-76
2023/04/13 13:53:37;;;;;;;2.60;0.80;;;;;;;;;;4998996;28;20068;-76
2023/04/13 13:56:04;;;;;;;4.38;1.00;;;;;;;;;;4974446;28;20057;-76
2023/04/13 13:58:30;;;;;;;4.63;0.70;;;;;;;;;;4973724;28;20402;-74
2023/04/13 14:00:58;;;;;;;3.13;1.55;;;;;;;;;;4973740;28;20046;-74
2023/04/13 14:03:25;;;;;;;2.58;1.00;;;;;;;;;;4960226;28;20058;-74
2023/04/13 14:05:52;;;;;;;2.67;0.80;;;;;;;;;;4992470;28;20517;-75
2023/04/13 14:08:19;;;;;;;4.28;0.80;;;;;;;;;;4988948;28;20058;-74
2023/04/13 14:10:48;;;;;;;7.50;1.05;;;;;;;;;;4982078;28;20490;-75
2023/04/13 14:13:15;;;;;;;2.25;1.10;;;;;;;;;;4960169;28;20069;-74
2023/04/13 14:15:42;;;;;;;1.58;0.80;;;;;;;;;;4990127;28;20157;-74
2023/04/13 14:18:09;;;;;;;5.95;1.35;;;;;;;;;;4999133;28;20166;-74
2023/04/13 14:20:37;;;;;;;3.80;0.95;;;;;;;;;;4976554;28;20525;-74
2023/04/13 14:23:05;;;;;;;6.80;1.10;;;;;;;;;;4985690;28;21455;-74
2023/04/13 14:25:32;;;;;;;2.22;1.02;;;;;;;;;;4981529;28;20058;-74
2023/04/13 14:27:59;;;;;;;2.97;1.30;;;;;;;;;;4973917;28;20469;-74
2023/04/13 14:30:26;;;;;;;3.65;0.90;;;;;;;;;;4996661;28;20057;-74
2023/04/13 14:32:54;;;;;;;2.70;0.98;;;;;;;;;;4991192;28;20426;-74
2023/04/13 14:35:22;;;;;;;3.30;1.20;;;;;;;;;;4976162;28;20112;-75
2023/04/13 14:37:49;;;;;;;3.42;1.50;;;;;;;;;;4975932;28;20064;-75
2023/04/13 14:40:20;;;;;;;4.45;1.70;;;;;;;;;;4967848;28;20430;-75
2023/04/13 14:42:49;;;;;;;6.50;2.15;;;;;;;;;;4984143;28;20584;-79
2023/04/13 14:45:16;;;;;;;3.55;2.15;;;;;;;;;;4959073;28;20049;-76
2023/04/13 14:47:43;;;;;;;4.47;2.50;;;;;;;;;;4983753;28;20046;-76
2023/04/13 14:50:10;;;;;;;6.30;2.10;;;;;;;;;;4964872;28;20054;-75
2023/04/13 14:52:38;;;;;;;6.05;1.92;;;;;;;;;;4979360;28;20502;-76